Time;durP1;ratioP1;P1;durP2;ratioP2;P2;SDS_P1;SDS_P2;PMS_P1;PMS_P2;Temp;Humidity;BMP_temperature;BMP_pressure;BME280_temperature;BME280_humidity;BME280_pressure;Samples;Min_cycle;Max_cycle;Signal;HPM_P1;HPM_P2
2022/01/10 00:00:20;;;;;;;66.65;28.98;;;;;;;;;;5073038;28;20375;-68
2022/01/10 00:02:48;;;;;;;67.63;31.13;;;;;;;;;;5083497;28;20025;-69
2022/01/10 00:05:14;;;;;;;86.05;35.58;;;;;;;;;;5091607;28;20020;-67
2022/01/10 00:07:40;;;;;;;119.97;48.90;;;;;;;;;;5082466;28;20021;-67
2022/01/10 00:10:10;;;;;;;73.13;30.80;;;;;;;;;;5082532;28;20020;-67
2022/01/10 00:12:36;;;;;;;65.93;30.00;;;;;;;;;;5095687;28;20031;-67
2022/01/10 00:15:03;;;;;;;63.47;27.73;;;;;;;;;;5097356;28;20020;-67
2022/01/10 00:17:29;;;;;;;70.55;30.00;;;;;;;;;;5088463;28;20060;-66
2022/01/10 00:19:55;;;;;;;64.53;27.90;;;;;;;;;;5080776;28;20024;-67
2022/01/10 00:22:23;;;;;;;62.83;29.27;;;;;;;;;;5075259;28;20024;-66
2022/01/10 00:24:49;;;;;;;63.13;26.38;;;;;;;;;;5075621;28;20025;-66
2022/01/10 00:27:15;;;;;;;66.45;27.58;;;;;;;;;;5076302;28;20420;-67
2022/01/10 00:29:41;;;;;;;66.60;29.30;;;;;;;;;;5076146;28;20471;-66
2022/01/10 00:32:07;;;;;;;58.75;27.58;;;;;;;;;;5081174;28;20031;-66
2022/01/10 00:34:34;;;;;;;60.10;25.55;;;;;;;;;;5096587;28;20020;-66
2022/01/10 00:37:00;;;;;;;52.90;25.38;;;;;;;;;;5096587;28;20024;-66
2022/01/10 00:39:26;;;;;;;64.00;27.63;;;;;;;;;;5095928;28;20020;-67
2022/01/10 00:41:55;;;;;;;59.55;27.55;;;;;;;;;;5096399;28;20107;-66
2022/01/10 00:44:25;;;;;;;59.58;27.52;;;;;;;;;;5095973;28;20027;-67
2022/01/10 00:46:51;;;;;;;67.65;29.42;;;;;;;;;;5092921;28;20035;-66
2022/01/10 00:49:18;;;;;;;61.60;27.63;;;;;;;;;;5076083;28;20017;-66
2022/01/10 00:51:44;;;;;;;63.58;27.08;;;;;;;;;;5075473;28;20088;-67
2022/01/10 00:54:10;;;;;;;69.30;27.38;;;;;;;;;;5075645;28;20028;-66
2022/01/10 00:56:36;;;;;;;65.55;29.60;;;;;;;;;;5075858;28;20078;-67
2022/01/10 00:59:02;;;;;;;72.13;30.85;;;;;;;;;;5075593;28;20371;-67
2022/01/10 01:01:29;;;;;;;68.22;29.98;;;;;;;;;;5076038;28;20032;-67
2022/01/10 01:03:55;;;;;;;67.32;28.73;;;;;;;;;;5075373;28;20025;-67
2022/01/10 01:06:21;;;;;;;65.90;27.13;;;;;;;;;;5075048;28;20028;-66
2022/01/10 01:08:47;;;;;;;73.78;33.20;;;;;;;;;;5075785;28;20047;-66
2022/01/10 01:14:06;;;;;;;68.03;28.48;;;;;;;;;;5075098;28;20102;-68
2022/01/10 01:24:22;;;;;;;65.95;25.70;;;;;;;;;;5075267;28;20245;-68
2022/01/10 01:26:50;;;;;;;56.30;23.67;;;;;;;;;;5075408;28;20025;-67
2022/01/10 01:29:18;;;;;;;56.03;23.67;;;;;;;;;;5075024;28;20082;-67
2022/01/10 01:31:44;;;;;;;55.13;24.42;;;;;;;;;;5075156;28;20044;-66
2022/01/10 01:34:11;;;;;;;51.70;22.75;;;;;;;;;;5075255;28;20024;-67
2022/01/10 01:36:38;;;;;;;55.03;23.05;;;;;;;;;;5075572;28;20016;-65
2022/01/10 01:39:15;;;;;;;50.33;21.17;;;;;;;;;;5074926;28;20078;-69
2022/01/10 01:41:42;;;;;;;49.28;20.65;;;;;;;;;;5074824;28;20032;-68
2022/01/10 01:44:09;;;;;;;49.13;20.38;;;;;;;;;;5074931;28;20036;-66
2022/01/10 01:46:35;;;;;;;38.55;17.67;;;;;;;;;;5074981;28;20024;-68
2022/01/10 01:49:02;;;;;;;49.67;21.20;;;;;;;;;;5074649;28;20016;-68
2022/01/10 01:51:28;;;;;;;44.28;19.63;;;;;;;;;;5074646;28;20081;-68
2022/01/10 01:53:54;;;;;;;49.95;20.10;;;;;;;;;;5074370;28;20075;-69
2022/01/10 01:56:20;;;;;;;56.67;21.25;;;;;;;;;;5074266;28;20020;-67
2022/01/10 01:58:47;;;;;;;42.05;18.83;;;;;;;;;;5074364;28;20028;-68
2022/01/10 02:01:17;;;;;;;42.13;18.73;;;;;;;;;;5073910;28;20012;-70
2022/01/10 02:03:44;;;;;;;47.28;19.42;;;;;;;;;;5076305;28;20024;-66
2022/01/10 02:06:10;;;;;;;45.28;19.88;;;;;;;;;;5094821;28;20032;-66
2022/01/10 02:08:37;;;;;;;47.28;19.38;;;;;;;;;;5095015;28;20390;-66
2022/01/10 02:11:05;;;;;;;42.10;20.55;;;;;;;;;;5094191;28;20455;-66
2022/01/10 02:13:32;;;;;;;37.10;17.83;;;;;;;;;;5094827;28;20390;-67
2022/01/10 02:16:01;;;;;;;37.13;17.40;;;;;;;;;;5094095;28;20030;-67
2022/01/10 02:18:28;;;;;;;43.38;17.98;;;;;;;;;;5094743;28;20016;-67
2022/01/10 02:20:54;;;;;;;44.15;18.45;;;;;;;;;;5094850;28;20031;-67
2022/01/10 02:23:21;;;;;;;41.92;17.42;;;;;;;;;;5093912;28;20376;-67
2022/01/10 02:25:48;;;;;;;41.67;17.48;;;;;;;;;;5094448;28;20424;-67
2022/01/10 02:28:14;;;;;;;42.28;18.33;;;;;;;;;;5093752;28;20063;-67
2022/01/10 02:30:41;;;;;;;41.38;18.30;;;;;;;;;;5093804;28;20020;-67
2022/01/10 02:33:07;;;;;;;38.60;17.33;;;;;;;;;;5094316;28;20095;-67
2022/01/10 02:35:40;;;;;;;37.88;17.63;;;;;;;;;;5094049;28;20024;-67
2022/01/10 02:38:06;;;;;;;32.88;15.75;;;;;;;;;;5093755;28;20498;-67
2022/01/10 02:40:34;;;;;;;37.90;16.15;;;;;;;;;;5094261;28;20077;-67
2022/01/10 02:43:00;;;;;;;38.80;16.38;;;;;;;;;;5094142;28;20020;-67
2022/01/10 02:45:27;;;;;;;34.60;16.35;;;;;;;;;;5093530;28;20449;-67
2022/01/10 02:47:54;;;;;;;33.85;15.40;;;;;;;;;;5093832;28;20528;-67
2022/01/10 02:50:21;;;;;;;38.17;15.48;;;;;;;;;;5094222;28;20031;-67
2022/01/10 02:52:47;;;;;;;36.53;16.13;;;;;;;;;;5093535;28;20443;-67
2022/01/10 02:55:14;;;;;;;34.10;15.85;;;;;;;;;;5094006;28;20020;-67
2022/01/10 02:57:41;;;;;;;34.95;15.73;;;;;;;;;;5093961;28;20474;-66
2022/01/10 03:00:13;;;;;;;38.47;15.32;;;;;;;;;;5093619;28;20020;-66
2022/01/10 03:02:41;;;;;;;32.67;15.57;;;;;;;;;;5094115;28;20493;-67
2022/01/10 03:05:07;;;;;;;30.02;14.73;;;;;;;;;;5093508;28;20028;-67
2022/01/10 03:07:34;;;;;;;30.55;14.77;;;;;;;;;;5080679;28;20506;-67
2022/01/10 03:10:00;;;;;;;33.95;14.77;;;;;;;;;;5073654;28;20078;-66
2022/01/10 03:12:30;;;;;;;36.35;15.25;;;;;;;;;;5073313;28;20017;-67
2022/01/10 03:14:57;;;;;;;33.15;15.50;;;;;;;;;;5073296;28;20021;-67
2022/01/10 03:17:23;;;;;;;33.05;15.68;;;;;;;;;;5073543;28;20096;-66
2022/01/10 03:19:49;;;;;;;37.75;15.40;;;;;;;;;;5072881;28;20111;-67
2022/01/10 03:22:16;;;;;;;32.47;14.45;;;;;;;;;;5073050;28;20378;-67
2022/01/10 03:24:42;;;;;;;35.75;14.90;;;;;;;;;;5073334;28;20116;-67
2022/01/10 03:27:08;;;;;;;31.58;14.98;;;;;;;;;;5072855;28;20039;-68
2022/01/10 03:29:34;;;;;;;34.53;15.52;;;;;;;;;;5073069;28;20359;-67
2022/01/10 03:32:05;;;;;;;32.03;15.32;;;;;;;;;;5073574;28;20029;-68
2022/01/10 03:34:31;;;;;;;33.83;16.13;;;;;;;;;;5072996;28;20017;-67
2022/01/10 03:36:58;;;;;;;31.60;13.93;;;;;;;;;;5073263;28;20021;-68
2022/01/10 03:39:24;;;;;;;29.65;13.75;;;;;;;;;;5075031;28;20070;-67
2022/01/10 03:41:50;;;;;;;37.72;16.63;;;;;;;;;;5077068;28;20024;-67
2022/01/10 03:44:16;;;;;;;32.88;15.63;;;;;;;;;;5077004;28;20029;-68
2022/01/10 03:46:43;;;;;;;34.58;15.80;;;;;;;;;;5077089;28;20471;-68
2022/01/10 03:49:09;;;;;;;38.08;15.93;;;;;;;;;;5097258;28;20024;-68
2022/01/10 03:51:35;;;;;;;30.65;15.13;;;;;;;;;;5096198;28;20028;-67
2022/01/10 03:54:01;;;;;;;34.15;16.10;;;;;;;;;;5097555;28;20056;-67
2022/01/10 03:56:28;;;;;;;36.35;16.38;;;;;;;;;;5097494;28;20052;-67
2022/01/10 03:58:55;;;;;;;40.95;17.77;;;;;;;;;;5097657;28;20481;-67
2022/01/10 04:01:21;;;;;;;36.92;15.93;;;;;;;;;;5096727;28;20020;-67
2022/01/10 04:03:47;;;;;;;38.15;17.45;;;;;;;;;;5097186;28;20024;-66
2022/01/10 04:06:13;;;;;;;45.15;19.17;;;;;;;;;;5097188;28;20052;-66
2022/01/10 04:08:40;;;;;;;46.05;20.05;;;;;;;;;;5097251;28;20028;-66
2022/01/10 04:11:06;;;;;;;49.47;21.48;;;;;;;;;;5097107;28;20028;-66
2022/01/10 04:13:32;;;;;;;59.00;25.50;;;;;;;;;;5097268;28;20088;-65
2022/01/10 04:15:59;;;;;;;61.67;26.50;;;;;;;;;;5096403;28;20032;-66
2022/01/10 04:18:25;;;;;;;64.88;28.98;;;;;;;;;;5096971;28;20028;-66
2022/01/10 04:20:51;;;;;;;84.03;34.67;;;;;;;;;;5096918;28;20099;-66
2022/01/10 04:23:18;;;;;;;105.93;43.67;;;;;;;;;;5095382;28;20028;-66
2022/01/10 04:25:44;;;;;;;102.25;40.95;;;;;;;;;;5096749;28;20028;-65
2022/01/10 04:28:10;;;;;;;106.28;43.38;;;;;;;;;;5096600;28;20031;-67
2022/01/10 04:30:36;;;;;;;109.70;43.63;;;;;;;;;;5096144;28;20505;-68
2022/01/10 04:33:03;;;;;;;147.57;51.80;;;;;;;;;;5096293;28;20486;-66
2022/01/10 04:35:30;;;;;;;94.28;37.97;;;;;;;;;;5096550;28;20020;-67
2022/01/10 04:37:56;;;;;;;103.22;41.40;;;;;;;;;;5096282;28;20028;-67
2022/01/10 04:40:23;;;;;;;115.40;44.42;;;;;;;;;;5096503;28;20069;-68
2022/01/10 04:42:50;;;;;;;128.20;49.22;;;;;;;;;;5096237;28;20016;-68
2022/01/10 04:45:16;;;;;;;121.60;46.15;;;;;;;;;;5096168;28;20470;-67
2022/01/10 04:47:42;;;;;;;108.57;43.53;;;;;;;;;;5096302;28;20028;-68
2022/01/10 04:52:37;;;;;;;117.45;44.55;;;;;;;;;;5096027;28;20056;-67
2022/01/10 04:55:04;;;;;;;124.30;48.60;;;;;;;;;;5095968;28;20020;-68
2022/01/10 04:57:30;;;;;;;116.40;42.47;;;;;;;;;;5095680;28;20378;-67
2022/01/10 04:59:56;;;;;;;96.55;35.95;;;;;;;;;;5096159;28;20416;-67
2022/01/10 05:02:23;;;;;;;80.75;31.60;;;;;;;;;;5089102;28;20095;-67
2022/01/10 05:04:49;;;;;;;106.32;40.00;;;;;;;;;;5075203;28;20406;-67
2022/01/10 05:07:15;;;;;;;99.70;37.63;;;;;;;;;;5075440;28;20528;-68
2022/01/10 05:09:42;;;;;;;90.20;33.58;;;;;;;;;;5075365;28;20042;-68
2022/01/10 05:12:08;;;;;;;83.03;33.28;;;;;;;;;;5075568;28;20025;-68
2022/01/10 05:14:34;;;;;;;70.40;29.10;;;;;;;;;;5075300;28;20032;-67
2022/01/10 05:17:01;;;;;;;61.28;24.13;;;;;;;;;;5075508;28;20150;-68
2022/01/10 05:19:27;;;;;;;60.22;26.55;;;;;;;;;;5074824;28;20020;-67
2022/01/10 05:21:53;;;;;;;67.03;27.25;;;;;;;;;;5075420;28;20021;-67
2022/01/10 05:24:19;;;;;;;53.28;22.15;;;;;;;;;;5075063;28;20360;-67
2022/01/10 05:26:45;;;;;;;52.72;22.38;;;;;;;;;;5075108;28;20031;-67
2022/01/10 05:29:11;;;;;;;50.65;21.27;;;;;;;;;;5075363;28;20021;-67
2022/01/10 05:31:38;;;;;;;54.70;23.13;;;;;;;;;;5074936;28;20099;-67
2022/01/10 05:34:04;;;;;;;41.60;19.67;;;;;;;;;;5074769;28;20028;-67
2022/01/10 05:36:30;;;;;;;50.35;21.40;;;;;;;;;;5075298;28;20035;-67
2022/01/10 05:38:56;;;;;;;42.70;19.77;;;;;;;;;;5074458;28;20459;-67
2022/01/10 05:41:24;;;;;;;49.72;20.55;;;;;;;;;;5074434;28;20470;-67
2022/01/10 05:43:50;;;;;;;37.38;17.42;;;;;;;;;;5073000;28;20150;-68
2022/01/10 05:46:19;;;;;;;34.50;15.63;;;;;;;;;;5074788;28;20036;-67
2022/01/10 05:48:47;;;;;;;35.00;17.38;;;;;;;;;;5075041;28;20017;-67
2022/01/10 05:51:14;;;;;;;35.15;16.70;;;;;;;;;;5074650;28;20112;-67
2022/01/10 05:53:41;;;;;;;38.72;15.98;;;;;;;;;;5080026;28;20425;-66
2022/01/10 05:56:07;;;;;;;34.60;15.63;;;;;;;;;;5094895;28;20031;-68
2022/01/10 05:58:33;;;;;;;35.63;16.10;;;;;;;;;;5095101;28;20020;-66
2022/01/10 06:00:59;;;;;;;30.60;14.85;;;;;;;;;;5094142;28;20040;-66
2022/01/10 06:03:26;;;;;;;28.55;12.70;;;;;;;;;;5083599;28;20076;-67
2022/01/10 06:05:52;;;;;;;28.73;13.77;;;;;;;;;;5077208;28;20031;-67
2022/01/10 06:08:18;;;;;;;24.20;12.65;;;;;;;;;;5074155;28;20025;-67
2022/01/10 06:10:45;;;;;;;29.65;14.00;;;;;;;;;;5074299;28;20111;-67
2022/01/10 06:13:11;;;;;;;27.17;12.50;;;;;;;;;;5074531;28;20371;-67
2022/01/10 06:15:37;;;;;;;26.45;11.65;;;;;;;;;;5073920;28;20024;-66
2022/01/10 06:18:04;;;;;;;25.13;12.35;;;;;;;;;;5074115;28;20039;-67
2022/01/10 06:20:30;;;;;;;31.25;12.32;;;;;;;;;;5074093;28;20070;-59
2022/01/10 06:22:56;;;;;;;28.48;13.57;;;;;;;;;;5074036;28;20033;-66
2022/01/10 06:25:24;;;;;;;29.70;13.68;;;;;;;;;;5074454;28;20060;-66
2022/01/10 06:27:50;;;;;;;26.38;13.13;;;;;;;;;;5080506;28;20028;-66
2022/01/10 06:30:16;;;;;;;27.63;12.90;;;;;;;;;;5080690;28;20055;-67
2022/01/10 06:32:43;;;;;;;28.05;13.10;;;;;;;;;;5074027;28;20407;-64
2022/01/10 06:35:09;;;;;;;25.95;12.48;;;;;;;;;;5073699;28;20475;-65
2022/01/10 06:37:35;;;;;;;26.65;11.88;;;;;;;;;;5074039;28;20524;-65
2022/01/10 06:40:02;;;;;;;26.23;12.55;;;;;;;;;;5073924;28;20055;-65
2022/01/10 06:42:28;;;;;;;22.88;12.30;;;;;;;;;;5073658;28;20027;-66
2022/01/10 06:44:54;;;;;;;27.63;14.05;;;;;;;;;;5073657;28;20021;-70
2022/01/10 06:47:20;;;;;;;24.40;11.98;;;;;;;;;;5073439;28;20029;-75
2022/01/10 06:49:47;;;;;;;22.75;11.30;;;;;;;;;;5087336;28;20024;-66
2022/01/10 06:52:13;;;;;;;30.25;15.27;;;;;;;;;;5082944;28;20498;-68
2022/01/10 06:54:39;;;;;;;28.55;15.02;;;;;;;;;;5071706;28;20093;-66
2022/01/10 06:57:05;;;;;;;34.83;14.35;;;;;;;;;;5073250;28;20029;-68
2022/01/10 06:59:31;;;;;;;30.05;15.02;;;;;;;;;;5072351;28;20479;-67
2022/01/10 07:01:58;;;;;;;41.58;19.73;;;;;;;;;;5072899;28;20031;-66
2022/01/10 07:04:25;;;;;;;47.90;21.73;;;;;;;;;;5073237;28;20029;-67
2022/01/10 07:06:51;;;;;;;50.88;21.55;;;;;;;;;;5072124;28;20142;-66
2022/01/10 07:09:18;;;;;;;64.10;26.48;;;;;;;;;;5072132;28;20020;-66
2022/01/10 07:11:44;;;;;;;51.30;23.83;;;;;;;;;;5072457;28;20017;-68
2022/01/10 07:14:12;;;;;;;68.45;27.85;;;;;;;;;;5072224;28;20035;-66
2022/01/10 07:16:38;;;;;;;45.58;21.45;;;;;;;;;;5073259;28;20016;-65
2022/01/10 07:19:06;;;;;;;73.32;30.10;;;;;;;;;;5072994;28;20025;-65
2022/01/10 07:21:32;;;;;;;63.75;27.83;;;;;;;;;;5073433;28;20017;-67
2022/01/10 07:23:58;;;;;;;54.58;23.85;;;;;;;;;;5073270;28;20031;-67
2022/01/10 07:26:25;;;;;;;54.05;23.77;;;;;;;;;;5073558;28;20031;-67
2022/01/10 07:28:51;;;;;;;62.47;27.95;;;;;;;;;;5073246;28;20016;-68
2022/01/10 07:31:17;;;;;;;61.17;27.77;;;;;;;;;;5073051;28;20027;-67
2022/01/10 07:33:43;;;;;;;55.13;27.45;;;;;;;;;;5073620;28;20036;-68
2022/01/10 07:36:10;;;;;;;59.17;24.02;;;;;;;;;;5073299;28;20075;-66
2022/01/10 07:38:36;;;;;;;52.25;22.20;;;;;;;;;;5073019;28;20029;-67
2022/01/10 07:41:03;;;;;;;44.60;21.75;;;;;;;;;;5073852;28;20023;-66
2022/01/10 07:43:29;;;;;;;57.47;25.00;;;;;;;;;;5072888;28;20066;-66
2022/01/10 07:45:55;;;;;;;51.75;22.33;;;;;;;;;;5072522;28;20498;-65
2022/01/10 07:48:22;;;;;;;52.67;23.35;;;;;;;;;;5073150;28;20082;-65
2022/01/10 07:50:48;;;;;;;46.58;19.17;;;;;;;;;;5072930;28;20532;-66
2022/01/10 07:53:14;;;;;;;40.28;17.92;;;;;;;;;;5072930;28;20049;-66
2022/01/10 07:55:40;;;;;;;44.50;20.45;;;;;;;;;;5073149;28;20076;-67
2022/01/10 07:58:06;;;;;;;45.40;19.98;;;;;;;;;;5073430;28;20028;-69
2022/01/10 08:00:33;;;;;;;39.05;18.17;;;;;;;;;;5072908;28;20039;-67
2022/01/10 08:02:59;;;;;;;36.22;16.90;;;;;;;;;;5073214;28;20056;-67
2022/01/10 08:05:25;;;;;;;42.30;19.35;;;;;;;;;;5072993;28;20097;-65
2022/01/10 08:07:51;;;;;;;29.95;14.20;;;;;;;;;;5073608;28;20029;-66
2022/01/10 08:10:17;;;;;;;28.77;14.02;;;;;;;;;;5073810;28;20490;-67
2022/01/10 08:12:43;;;;;;;28.27;13.73;;;;;;;;;;5072892;28;20067;-66
2022/01/10 08:15:10;;;;;;;23.50;12.23;;;;;;;;;;5072266;28;20031;-65
2022/01/10 08:17:36;;;;;;;29.33;14.18;;;;;;;;;;5072669;28;20033;-65
2022/01/10 08:20:03;;;;;;;30.35;13.57;;;;;;;;;;5072737;28;20036;-66
2022/01/10 08:22:29;;;;;;;28.73;12.38;;;;;;;;;;5072988;28;20025;-66
2022/01/10 08:24:56;;;;;;;40.85;16.73;;;;;;;;;;5073914;28;20502;-66
2022/01/10 08:27:22;;;;;;;22.38;11.05;;;;;;;;;;5075954;28;20028;-67
2022/01/10 08:29:48;;;;;;;27.30;11.63;;;;;;;;;;5075234;28;20027;-67
2022/01/10 08:32:15;;;;;;;27.52;12.02;;;;;;;;;;5075060;28;20025;-66
2022/01/10 08:34:48;;;;;;;27.45;12.50;;;;;;;;;;5075791;28;20025;-67
2022/01/10 08:37:15;;;;;;;27.17;13.05;;;;;;;;;;5076030;28;20070;-66
2022/01/10 08:39:41;;;;;;;40.88;16.90;;;;;;;;;;5076346;28;20024;-66
2022/01/10 08:42:08;;;;;;;28.15;12.48;;;;;;;;;;5076018;28;20056;-66
2022/01/10 08:44:34;;;;;;;26.42;12.57;;;;;;;;;;5076117;28;20074;-67
2022/01/10 08:47:00;;;;;;;32.92;14.68;;;;;;;;;;5076503;28;20060;-67
2022/01/10 08:49:26;;;;;;;30.10;13.25;;;;;;;;;;5075711;28;20028;-67
2022/01/10 08:51:55;;;;;;;25.90;11.65;;;;;;;;;;5084407;28;20013;-67
2022/01/10 08:54:24;;;;;;;24.00;11.15;;;;;;;;;;5085358;28;20482;-68
2022/01/10 08:56:51;;;;;;;26.65;12.38;;;;;;;;;;5086307;28;20016;-68
2022/01/10 08:59:18;;;;;;;23.10;11.25;;;;;;;;;;5084896;28;20017;-66
2022/01/10 09:01:46;;;;;;;21.50;11.18;;;;;;;;;;5084785;28;20016;-67
2022/01/10 09:04:16;;;;;;;22.00;10.95;;;;;;;;;;5084114;28;20103;-67
2022/01/10 09:06:46;;;;;;;22.42;11.52;;;;;;;;;;5095693;28;20039;-69
2022/01/10 09:09:13;;;;;;;22.67;11.32;;;;;;;;;;5094428;28;20370;-65
2022/01/10 09:11:39;;;;;;;20.15;11.30;;;;;;;;;;5095743;28;20024;-68
2022/01/10 09:14:05;;;;;;;18.65;10.75;;;;;;;;;;5095930;28;20470;-68
2022/01/10 09:16:32;;;;;;;20.77;11.35;;;;;;;;;;5095534;28;20074;-69
2022/01/10 09:18:58;;;;;;;19.65;11.15;;;;;;;;;;5095598;28;20073;-66
2022/01/10 09:21:24;;;;;;;20.80;11.27;;;;;;;;;;5096099;28;20034;-66
2022/01/10 09:23:51;;;;;;;19.90;11.35;;;;;;;;;;5095233;28;20028;-60
2022/01/10 09:26:17;;;;;;;26.85;12.45;;;;;;;;;;5095718;28;20028;-57
2022/01/10 09:28:43;;;;;;;21.60;11.73;;;;;;;;;;5095666;28;20021;-65
2022/01/10 09:31:10;;;;;;;23.40;11.95;;;;;;;;;;5095083;28;20020;-65
2022/01/10 09:33:36;;;;;;;23.33;11.27;;;;;;;;;;5095622;28;20020;-68
2022/01/10 09:36:03;;;;;;;23.58;12.40;;;;;;;;;;5094754;28;20421;-65
2022/01/10 09:38:29;;;;;;;20.63;11.02;;;;;;;;;;5094990;28;20485;-67
2022/01/10 09:40:55;;;;;;;21.13;11.05;;;;;;;;;;5095417;28;20094;-67
2022/01/10 09:43:21;;;;;;;20.20;11.80;;;;;;;;;;5095278;28;20051;-66
2022/01/10 09:45:48;;;;;;;20.20;10.82;;;;;;;;;;5094584;28;20029;-65
2022/01/10 09:48:14;;;;;;;23.10;12.50;;;;;;;;;;5095278;28;20020;-66
2022/01/10 09:50:41;;;;;;;18.48;10.02;;;;;;;;;;5094929;28;20478;-65
2022/01/10 09:53:07;;;;;;;22.90;11.00;;;;;;;;;;5094835;28;20044;-66
2022/01/10 09:55:34;;;;;;;20.20;10.85;;;;;;;;;;5095028;28;20456;-66
2022/01/10 09:58:00;;;;;;;18.77;10.75;;;;;;;;;;5094354;28;20040;-65
2022/01/10 10:00:27;;;;;;;19.75;10.88;;;;;;;;;;5095239;28;20393;-66
2022/01/10 10:02:53;;;;;;;17.92;10.45;;;;;;;;;;5094714;28;20028;-66
2022/01/10 10:05:19;;;;;;;21.15;11.52;;;;;;;;;;5094611;28;20039;-65
2022/01/10 10:07:46;;;;;;;20.98;11.35;;;;;;;;;;5094810;28;20116;-64
2022/01/10 10:10:13;;;;;;;22.00;11.27;;;;;;;;;;5094876;28;20020;-65
2022/01/10 10:12:41;;;;;;;21.23;11.85;;;;;;;;;;5094157;28;20076;-64
2022/01/10 10:15:09;;;;;;;22.35;11.20;;;;;;;;;;5094364;28;20069;-65
2022/01/10 10:17:37;;;;;;;25.42;11.43;;;;;;;;;;5094949;28;20031;-66
2022/01/10 10:20:10;;;;;;;24.77;12.18;;;;;;;;;;5094880;28;20085;-64
2022/01/10 10:22:39;;;;;;;32.83;15.27;;;;;;;;;;5094397;28;20027;-65
2022/01/10 10:25:06;;;;;;;20.85;11.40;;;;;;;;;;5094580;28;20047;-65
2022/01/10 10:27:43;;;;;;;18.88;10.27;;;;;;;;;;5094345;28;20032;-66
2022/01/10 10:30:15;;;;;;;30.98;14.20;;;;;;;;;;5094174;28;20024;-65
2022/01/10 10:32:41;;;;;;;;;;;;;;;;;;5082015;28;20024;-65
2022/01/10 10:35:08;;;;;;;26.40;12.93;;;;;;;;;;5092733;28;19927;-64
2022/01/10 10:37:38;;;;;;;34.40;16.05;;;;;;;;;;5094101;28;20466;-63
2022/01/10 10:40:08;;;;;;;23.05;13.23;;;;;;;;;;5090754;28;20028;-64
2022/01/10 10:42:37;;;;;;;23.50;11.93;;;;;;;;;;5094089;28;20027;-64
2022/01/10 10:45:06;;;;;;;25.20;11.73;;;;;;;;;;5094774;28;20062;-64
2022/01/10 10:47:36;;;;;;;25.00;11.63;;;;;;;;;;5093672;28;20032;-65
2022/01/10 10:50:05;;;;;;;23.05;11.30;;;;;;;;;;5093861;28;20387;-64
2022/01/10 10:52:32;;;;;;;24.98;12.77;;;;;;;;;;5093761;28;20044;-64
2022/01/10 10:55:03;;;;;;;20.27;10.13;;;;;;;;;;5093784;28;20032;-65
2022/01/10 10:57:30;;;;;;;;;;;;;;;;;;5094692;28;20020;-65
2022/01/10 10:59:58;;;;;;;17.02;7.47;;;;;;;;;;5094213;28;20273;-64
2022/01/10 11:02:24;;;;;;;20.75;10.50;;;;;;;;;;5093750;28;20039;-65
2022/01/10 11:04:51;;;;;;;18.63;10.13;;;;;;;;;;5094044;28;20024;-65
2022/01/10 11:07:21;;;;;;;18.00;9.88;;;;;;;;;;5093796;28;20101;-65
2022/01/10 11:09:47;;;;;;;22.03;10.17;;;;;;;;;;5093268;28;20036;-64
2022/01/10 11:12:16;;;;;;;20.48;11.15;;;;;;;;;;5093756;28;20021;-63
2022/01/10 11:14:42;;;;;;;18.38;8.77;;;;;;;;;;5093706;28;20024;-64
2022/01/10 11:17:16;;;;;;;18.40;9.57;;;;;;;;;;5093373;28;20075;-63
2022/01/10 11:20:05;;;;;;;15.80;8.07;;;;;;;;;;5093952;28;20089;-63
2022/01/10 11:22:31;;;;;;;17.80;10.38;;;;;;;;;;5093477;28;20531;-63
2022/01/10 11:24:57;;;;;;;15.75;8.50;;;;;;;;;;5093327;28;20031;-63
2022/01/10 11:27:30;;;;;;;12.95;7.93;;;;;;;;;;5093441;28;20073;-64
2022/01/10 11:29:57;;;;;;;16.42;9.40;;;;;;;;;;5093491;28;20020;-63
2022/01/10 11:32:42;;;;;;;16.38;9.32;;;;;;;;;;5093396;28;20024;-64
2022/01/10 11:35:08;;;;;;;15.07;7.97;;;;;;;;;;5093109;28;20043;-65
2022/01/10 11:37:34;;;;;;;17.45;9.52;;;;;;;;;;5093147;28;20023;-63
2022/01/10 11:40:01;;;;;;;20.75;9.32;;;;;;;;;;5093458;28;20028;-64
2022/01/10 11:42:27;;;;;;;14.90;8.98;;;;;;;;;;5087939;28;20024;-66
2022/01/10 11:45:20;;;;;;;14.43;8.55;;;;;;;;;;5081368;28;20037;-64
2022/01/10 11:48:06;;;;;;;15.07;8.25;;;;;;;;;;5079956;28;20029;-64
2022/01/10 11:50:32;;;;;;;11.98;7.50;;;;;;;;;;5081776;28;20024;-64
2022/01/10 11:53:00;;;;;;;12.23;7.43;;;;;;;;;;5081324;28;20049;-64
2022/01/10 11:55:42;;;;;;;11.82;7.82;;;;;;;;;;5082387;28;20026;-64
2022/01/10 11:58:15;;;;;;;13.23;7.45;;;;;;;;;;5082633;28;20536;-65
2022/01/10 12:00:41;;;;;;;12.45;7.30;;;;;;;;;;5084624;28;20099;-65
2022/01/10 12:03:07;;;;;;;15.85;8.07;;;;;;;;;;5086534;28;20018;-63
2022/01/10 12:05:36;;;;;;;14.90;7.30;;;;;;;;;;5087415;28;20084;-64
2022/01/10 12:08:06;;;;;;;16.95;8.68;;;;;;;;;;5087179;28;20054;-65
2022/01/10 12:10:32;;;;;;;25.35;12.75;;;;;;;;;;5086414;28;20154;-67
2022/01/10 12:13:03;;;;;;;21.38;11.43;;;;;;;;;;5085994;28;20024;-65
2022/01/10 12:15:30;;;;;;;21.00;12.75;;;;;;;;;;5086947;28;20016;-64
2022/01/10 12:17:57;;;;;;;25.65;13.80;;;;;;;;;;5084993;28;20023;-64
2022/01/10 12:20:23;;;;;;;22.33;11.27;;;;;;;;;;5087938;28;20103;-64
2022/01/10 12:22:53;;;;;;;35.70;17.23;;;;;;;;;;5096937;28;20023;-65
2022/01/10 12:25:19;;;;;;;23.63;11.40;;;;;;;;;;5096511;28;20085;-65
2022/01/10 12:27:45;;;;;;;16.73;9.30;;;;;;;;;;5096588;28;20030;-65
2022/01/10 12:30:12;;;;;;;18.55;9.65;;;;;;;;;;5095878;28;20043;-64
2022/01/10 12:32:38;;;;;;;20.80;10.77;;;;;;;;;;5097146;28;20542;-65
2022/01/10 12:35:05;;;;;;;17.67;10.25;;;;;;;;;;5096721;28;20034;-64
2022/01/10 12:37:31;;;;;;;20.13;10.98;;;;;;;;;;5095410;28;20023;-65
2022/01/10 12:39:57;;;;;;;24.05;12.77;;;;;;;;;;5096291;28;20030;-64
2022/01/10 12:42:26;;;;;;;22.33;12.80;;;;;;;;;;5095378;28;20020;-63
2022/01/10 12:44:53;;;;;;;20.75;12.40;;;;;;;;;;5096549;28;20091;-65
2022/01/10 12:47:19;;;;;;;24.15;12.38;;;;;;;;;;5096233;28;20383;-65
2022/01/10 12:49:47;;;;;;;23.25;12.98;;;;;;;;;;5094899;28;20058;-65
2022/01/10 12:52:14;;;;;;;24.27;13.02;;;;;;;;;;5096347;28;20062;-65
2022/01/10 12:54:40;;;;;;;23.30;12.70;;;;;;;;;;5096213;28;20373;-64
2022/01/10 12:57:07;;;;;;;23.25;13.18;;;;;;;;;;5095084;28;20055;-65
2022/01/10 12:59:37;;;;;;;26.77;13.30;;;;;;;;;;5096290;28;20024;-66
2022/01/10 13:02:06;;;;;;;23.13;12.90;;;;;;;;;;5096057;28;20031;-65
2022/01/10 13:04:34;;;;;;;23.60;12.75;;;;;;;;;;5096041;28;20351;-67
2022/01/10 13:07:01;;;;;;;19.73;11.05;;;;;;;;;;5095904;28;20109;-65
2022/01/10 13:09:28;;;;;;;21.65;11.20;;;;;;;;;;5095712;28;20031;-64
2022/01/10 13:12:23;;;;;;;22.60;11.85;;;;;;;;;;5095612;28;20089;-65
2022/01/10 13:14:49;;;;;;;19.15;9.75;;;;;;;;;;5095752;28;20459;-66
2022/01/10 13:17:15;;;;;;;17.83;9.55;;;;;;;;;;5094307;28;20046;-66
2022/01/10 13:19:44;;;;;;;21.73;11.90;;;;;;;;;;5095707;28;20069;-64
2022/01/10 13:22:13;;;;;;;22.02;11.65;;;;;;;;;;5094155;28;20126;-64
2022/01/10 13:24:47;;;;;;;23.30;12.27;;;;;;;;;;5094513;28;20032;-64
2022/01/10 13:27:17;;;;;;;24.85;12.75;;;;;;;;;;5095514;28;20067;-64
2022/01/10 13:29:48;;;;;;;21.88;12.85;;;;;;;;;;5094257;28;20035;-64
2022/01/10 13:32:17;;;;;;;20.70;11.80;;;;;;;;;;5088874;28;20065;-64
2022/01/10 13:34:43;;;;;;;26.17;12.65;;;;;;;;;;5084478;28;20082;-63
2022/01/10 13:37:09;;;;;;;22.90;11.35;;;;;;;;;;5083581;28;20386;-64
2022/01/10 13:39:36;;;;;;;22.60;10.90;;;;;;;;;;5085326;28;20028;-64
2022/01/10 13:42:07;;;;;;;25.95;12.05;;;;;;;;;;5082465;28;20017;-64
2022/01/10 13:44:50;;;;;;;20.00;10.95;;;;;;;;;;5084748;28;20031;-64
2022/01/10 13:47:17;;;;;;;21.50;11.43;;;;;;;;;;5077605;28;20070;-63
2022/01/10 13:49:43;;;;;;;25.73;12.73;;;;;;;;;;5083547;28;20406;-65
2022/01/10 13:52:14;;;;;;;24.58;12.57;;;;;;;;;;5083749;28;20474;-64
2022/01/10 13:54:40;;;;;;;26.58;13.13;;;;;;;;;;5084149;28;20028;-64
2022/01/10 13:57:17;;;;;;;22.35;10.93;;;;;;;;;;5084421;28;20371;-65
2022/01/10 13:59:43;;;;;;;24.17;13.00;;;;;;;;;;5084297;28;20036;-65
2022/01/10 14:02:10;;;;;;;21.98;12.02;;;;;;;;;;5083958;28;20360;-64
2022/01/10 14:04:36;;;;;;;28.33;13.25;;;;;;;;;;5091046;28;20027;-64
2022/01/10 14:07:07;;;;;;;23.50;11.65;;;;;;;;;;5084909;28;20052;-64
2022/01/10 14:09:33;;;;;;;21.23;11.35;;;;;;;;;;5074656;28;20106;-64
2022/01/10 14:12:03;;;;;;;22.17;12.07;;;;;;;;;;5079468;28;20024;-66
2022/01/10 14:14:30;;;;;;;22.52;12.40;;;;;;;;;;5083208;28;20020;-65
2022/01/10 14:16:57;;;;;;;25.25;12.20;;;;;;;;;;5083929;28;20024;-64
2022/01/10 14:19:23;;;;;;;25.92;12.95;;;;;;;;;;5082330;28;20020;-65
2022/01/10 14:21:49;;;;;;;25.98;13.93;;;;;;;;;;5083120;28;20535;-64
2022/01/10 14:24:19;;;;;;;27.23;12.75;;;;;;;;;;5083046;28;20035;-64
2022/01/10 14:26:46;;;;;;;26.55;12.70;;;;;;;;;;5075514;28;20024;-64
2022/01/10 14:29:13;;;;;;;27.48;13.32;;;;;;;;;;5089180;28;20029;-63
2022/01/10 14:31:40;;;;;;;23.58;11.88;;;;;;;;;;5094138;28;20043;-64